createdAt,value
2023-05-05T00:01:18.556Z,8.70
2023-05-05T00:06:21.885Z,8.70
2023-05-05T00:11:26.456Z,8.70
2023-05-05T00:16:29.857Z,8.80
2023-05-05T00:21:33.144Z,8.80
2023-05-05T00:26:36.685Z,8.90
2023-05-05T00:31:40.143Z,8.80
2023-05-05T00:36:43.567Z,8.80
2023-05-05T00:41:46.771Z,8.70
2023-05-05T00:46:49.934Z,8.80
2023-05-05T00:51:53.347Z,8.80
2023-05-05T00:56:56.692Z,8.70
2023-05-05T01:02:00.420Z,8.70
2023-05-05T01:07:28.261Z,8.70
2023-05-05T01:12:44.499Z,8.80
2023-05-05T01:18:04.572Z,8.70
2023-05-05T01:23:10.370Z,8.70
2023-05-05T01:28:34.801Z,8.70
2023-05-05T01:33:48.001Z,8.70
2023-05-05T01:39:00.117Z,8.70
2023-05-05T01:44:06.665Z,8.60
2023-05-05T01:49:12.083Z,8.50
2023-05-05T01:54:18.133Z,8.50
2023-05-05T01:59:22.175Z,8.50
2023-05-05T02:04:27.188Z,8.50
2023-05-05T02:09:31.551Z,8.40
2023-05-05T02:14:36.226Z,8.50
2023-05-05T02:19:42.449Z,8.40
2023-05-05T02:24:45.806Z,8.40
2023-05-05T02:29:53.301Z,8.30
2023-05-05T02:35:01.362Z,8.30
2023-05-05T02:40:09.130Z,8.30
2023-05-05T02:45:18.783Z,8.30
2023-05-05T02:50:22.103Z,8.30
2023-05-05T02:55:30.077Z,8.30
2023-05-05T03:00:44.243Z,8.30
2023-05-05T03:06:01.388Z,8.30
2023-05-05T03:11:14.564Z,8.20
2023-05-05T03:16:21.313Z,8.30
2023-05-05T03:21:25.440Z,8.30
2023-05-05T03:26:28.817Z,8.20
2023-05-05T03:31:32.233Z,8.20
2023-05-05T03:36:36.471Z,8.10
2023-05-05T03:41:39.654Z,8.20
2023-05-05T03:46:43.304Z,8.10
2023-05-05T03:51:47.489Z,8.10
2023-05-05T03:56:51.079Z,8.20
2023-05-05T04:01:55.314Z,8.10
2023-05-05T04:06:58.554Z,8.10
2023-05-05T04:12:02.070Z,8.10
2023-05-05T04:17:05.665Z,8.20
2023-05-05T04:22:08.905Z,8.20
2023-05-05T04:27:12.230Z,8.10
2023-05-05T04:32:15.545Z,8.10
2023-05-05T04:37:18.786Z,8.10
2023-05-05T04:42:22.167Z,8.10
2023-05-05T04:47:25.494Z,8.20
2023-05-05T04:52:29.042Z,8.30
2023-05-05T04:57:32.670Z,8.30
2023-05-05T05:02:37.992Z,8.30
2023-05-05T05:07:41.703Z,8.30
2023-05-05T05:12:45.110Z,8.30
2023-05-05T05:17:48.431Z,8.30
2023-05-05T05:22:51.703Z,8.40
2023-05-05T05:33:05.478Z,8.40
2023-05-05T05:38:09.182Z,8.40
2023-05-05T05:43:12.726Z,8.30
2023-05-05T05:48:16.088Z,8.20
2023-05-05T05:53:19.498Z,8.20
2023-05-05T05:58:22.825Z,8.20
2023-05-05T06:03:27.187Z,8.20
2023-05-05T06:08:30.847Z,8.20
2023-05-05T06:13:34.610Z,8.20
2023-05-05T06:18:37.939Z,8.20
2023-05-05T06:23:42.580Z,8.10
2023-05-05T06:28:46.099Z,8.20
2023-05-05T06:33:49.891Z,8.10
2023-05-05T06:38:56.754Z,8.10
2023-05-05T06:44:04.873Z,8.10
2023-05-05T06:49:08.135Z,8.10
2023-05-05T06:54:11.766Z,8.10
2023-05-05T06:59:16.183Z,8.10
2023-05-05T07:04:19.553Z,8.10
2023-05-05T07:09:22.932Z,8.00
2023-05-05T07:14:26.751Z,8.00
2023-05-05T07:19:30.086Z,8.00
2023-05-05T07:24:33.848Z,7.90
2023-05-05T07:29:37.207Z,7.90
2023-05-05T07:34:40.800Z,7.90
2023-05-05T07:39:44.025Z,8.00
2023-05-05T07:44:47.343Z,8.00
2023-05-05T07:49:51.485Z,8.10
2023-05-05T07:54:54.820Z,8.10
2023-05-05T07:59:58.089Z,8.30
2023-05-05T08:05:01.476Z,8.40
2023-05-05T08:10:04.955Z,8.60
2023-05-05T08:15:08.893Z,8.90
2023-05-05T08:20:13.172Z,9.40
2023-05-05T08:25:16.806Z,9.70
2023-05-05T08:30:21.904Z,9.90
2023-05-05T08:35:25.099Z,10.10
2023-05-05T08:40:36.854Z,10.10
2023-05-05T08:45:42.446Z,10.10
2023-05-05T08:50:52.478Z,10.10
2023-05-05T08:55:57.045Z,10.00
2023-05-05T09:01:01.898Z,10.00
2023-05-05T09:06:05.523Z,9.90
2023-05-05T09:11:08.700Z,9.90
2023-05-05T09:16:11.973Z,9.90
2023-05-05T09:21:22.812Z,9.90
2023-05-05T09:26:26.014Z,10.10
2023-05-05T09:31:31.335Z,10.20
2023-05-05T09:36:45.296Z,10.40
2023-05-05T09:41:48.605Z,10.50
2023-05-05T09:46:53.310Z,10.80
2023-05-05T09:51:57.856Z,11.10
2023-05-05T09:57:01.955Z,11.30
2023-05-05T10:02:13.483Z,11.50
2023-05-05T10:07:36.411Z,11.60
2023-05-05T10:12:40.603Z,11.70
2023-05-05T10:22:57.953Z,12.80
2023-05-05T10:28:06.459Z,13.30
2023-05-05T10:33:33.242Z,13.70
2023-05-05T10:38:37.859Z,14.00
2023-05-05T10:43:42.290Z,14.00
2023-05-05T10:48:58.065Z,13.80
2023-05-05T10:54:07.313Z,13.70
2023-05-05T10:59:39.430Z,13.90
2023-05-05T11:04:42.805Z,13.90
2023-05-05T11:09:57.082Z,14.00
2023-05-05T11:15:28.308Z,13.90
2023-05-05T11:20:40.519Z,13.90
2023-05-05T11:25:45.075Z,13.70
2023-05-05T11:31:16.087Z,13.40
2023-05-05T11:36:22.568Z,13.10
2023-05-05T11:41:34.574Z,13.20
2023-05-05T11:46:41.294Z,13.20
2023-05-05T11:52:02.397Z,13.20
2023-05-05T11:57:08.306Z,13.30
2023-05-05T12:02:16.475Z,13.30
2023-05-05T12:07:22.120Z,13.30
2023-05-05T12:12:41.885Z,13.50
2023-05-05T12:17:47.783Z,13.60
2023-05-05T12:22:51.182Z,13.80
2023-05-05T12:27:54.404Z,13.90
2023-05-05T12:33:07.851Z,14.00
2023-05-05T12:38:11.978Z,14.10
2023-05-05T12:43:44.529Z,14.10
2023-05-05T12:49:05.377Z,14.30
2023-05-05T12:54:12.578Z,14.40
2023-05-05T12:59:34.357Z,14.50
2023-05-05T13:04:52.880Z,14.50
2023-05-05T13:10:09.577Z,14.70
2023-05-05T13:15:13.572Z,14.70
2023-05-05T13:20:17.423Z,14.50
2023-05-05T13:25:20.668Z,14.50
2023-05-05T13:30:24.106Z,14.70
2023-05-05T13:35:27.715Z,14.80
2023-05-05T13:40:31.296Z,15.10
2023-05-05T13:45:34.561Z,15.30
2023-05-05T13:50:38.327Z,15.00
2023-05-05T13:55:43.253Z,15.00
2023-05-05T14:00:46.449Z,15.20
2023-05-05T14:05:51.380Z,15.20
2023-05-05T14:10:54.736Z,15.40
2023-05-05T14:15:58.920Z,15.40
2023-05-05T14:21:02.198Z,15.20
2023-05-05T14:26:05.735Z,15.20
2023-05-05T14:31:08.986Z,15.30
2023-05-05T14:36:12.270Z,15.50
2023-05-05T14:41:15.557Z,15.60
2023-05-05T14:46:19.337Z,15.60
2023-05-05T14:51:22.541Z,15.80
2023-05-05T14:56:28.707Z,16.00
2023-05-05T15:01:32.009Z,15.60
2023-05-05T15:06:35.460Z,15.40
2023-05-05T15:11:38.683Z,15.30
2023-05-05T15:16:41.981Z,15.40
2023-05-05T15:21:45.125Z,15.90
2023-05-05T15:26:48.952Z,15.50
2023-05-05T15:31:53.157Z,15.00
2023-05-05T15:36:56.582Z,14.80
2023-05-05T15:42:04.067Z,14.70
2023-05-05T15:47:08.290Z,14.60
2023-05-05T15:52:14.179Z,14.70
2023-05-05T15:57:18.033Z,15.00
2023-05-05T16:02:21.800Z,15.20
2023-05-05T16:07:25.265Z,14.90
2023-05-05T16:12:28.573Z,14.30
2023-05-05T16:17:32.364Z,13.80
2023-05-05T16:22:35.770Z,13.70
2023-05-05T16:27:39.319Z,13.40
2023-05-05T16:32:42.928Z,13.50
2023-05-05T16:37:46.223Z,13.60
2023-05-05T16:42:49.630Z,13.80
2023-05-05T16:47:53.226Z,14.10
2023-05-05T16:52:56.452Z,14.30
2023-05-05T16:57:59.795Z,14.40
2023-05-05T17:03:03.137Z,14.20
2023-05-05T17:08:07.481Z,13.90
2023-05-05T17:13:12.008Z,13.20
2023-05-05T17:18:16.207Z,12.20
2023-05-05T17:23:21.620Z,11.60
2023-05-05T17:28:25.169Z,11.20
2023-05-05T17:33:28.913Z,10.90
2023-05-05T17:38:32.527Z,10.70
2023-05-05T17:43:35.888Z,10.50
2023-05-05T17:48:39.223Z,10.40
2023-05-05T17:53:42.522Z,10.20
2023-05-05T17:58:45.709Z,10.10
2023-05-05T18:03:49.604Z,9.90
2023-05-05T18:08:53.332Z,9.70
2023-05-05T18:13:56.841Z,9.60
2023-05-05T18:19:00.153Z,9.40
2023-05-05T18:24:15.893Z,9.20
2023-05-05T18:29:23.176Z,9.00
2023-05-05T18:34:26.738Z,8.80
2023-05-05T18:39:30.118Z,8.80
2023-05-05T18:44:35.153Z,8.70
2023-05-05T18:49:38.496Z,8.50
2023-05-05T18:54:41.874Z,8.40
2023-05-05T18:59:45.408Z,8.20
2023-05-05T19:04:48.631Z,8.10
2023-05-05T19:09:52.308Z,7.90
2023-05-05T19:14:55.648Z,7.80
2023-05-05T19:19:58.983Z,7.70
2023-05-05T19:25:02.344Z,7.60
2023-05-05T19:30:06.982Z,7.40
2023-05-05T19:35:12.723Z,7.40
2023-05-05T19:40:16.488Z,7.30
2023-05-05T19:45:20.540Z,7.20
2023-05-05T19:50:24.745Z,7.10
2023-05-05T19:55:28.778Z,7.10
2023-05-05T20:00:33.386Z,7.00
2023-05-05T20:05:39.698Z,6.90
2023-05-05T20:10:45.821Z,6.90
2023-05-05T20:15:50.432Z,6.80
2023-05-05T20:20:54.294Z,6.60
2023-05-05T20:25:57.825Z,6.60
2023-05-05T20:31:02.688Z,6.60
2023-05-05T20:36:07.206Z,6.50
2023-05-05T20:41:10.624Z,6.50
2023-05-05T20:46:14.046Z,6.40
2023-05-05T20:51:17.818Z,6.40
2023-05-05T20:56:21.534Z,6.30
2023-05-05T21:01:24.888Z,6.40
2023-05-05T21:06:28.257Z,6.30
2023-05-05T21:11:31.509Z,6.20
2023-05-05T21:16:34.865Z,6.30
2023-05-05T21:21:38.833Z,6.20
2023-05-05T21:26:45.623Z,6.20
2023-05-05T21:31:49.215Z,6.30
2023-05-05T21:36:52.452Z,6.30
2023-05-05T21:41:57.221Z,6.30
2023-05-05T21:47:00.671Z,6.20
2023-05-05T21:52:04.572Z,6.20
2023-05-05T21:57:07.887Z,6.30
2023-05-05T22:02:11.203Z,6.20
2023-05-05T22:07:14.674Z,6.30
2023-05-05T22:12:17.898Z,6.30
2023-05-05T22:17:21.130Z,6.30
2023-05-05T22:22:24.801Z,6.30
2023-05-05T22:27:28.318Z,6.30
2023-05-05T22:32:32.896Z,6.30
2023-05-05T22:37:36.258Z,6.20
2023-05-05T22:42:40.177Z,6.20
2023-05-05T22:47:44.517Z,6.10
2023-05-05T22:52:47.672Z,6.10
2023-05-05T22:57:52.919Z,6.00
2023-05-05T23:02:56.268Z,6.00
2023-05-05T23:08:01.652Z,5.90
2023-05-05T23:13:05.683Z,5.90
2023-05-05T23:18:09.020Z,5.80
2023-05-05T23:23:12.420Z,5.70
2023-05-05T23:28:15.735Z,5.70
2023-05-05T23:33:19.829Z,5.60
2023-05-05T23:38:23.095Z,5.50
2023-05-05T23:43:26.592Z,5.40
2023-05-05T23:48:30.156Z,5.40
2023-05-05T23:53:33.853Z,5.30
2023-05-05T23:58:37.138Z,5.30
